Time;durP1;ratioP1;P1;durP2;ratioP2;P2;SDS_P1;SDS_P2;PMS_P1;PMS_P2;Temp;Humidity;BMP_temperature;BMP_pressure;BME280_temperature;BME280_humidity;BME280_pressure;Samples;Min_cycle;Max_cycle;Signal;HPM_P1;HPM_P2
2023/12/15 05:13:45;;;;;;;15.88;7.70;;;;;;;4.64;100.00;100956.78;6154577;28;20189;-84
2023/12/15 05:16:52;;;;;;;15.23;8.40;;;;;;;4.62;100.00;100949.88;5303337;33;33838;-85
2023/12/15 05:19:55;;;;;;;14.75;7.93;;;;;;;4.55;100.00;100949.53;5326520;33;33637;-84
2023/12/15 05:22:58;;;;;;;13.27;6.87;;;;;;;4.70;100.00;100961.59;5328132;33;33987;-84
2023/12/15 05:26:01;;;;;;;14.68;8.13;;;;;;;4.86;100.00;100969.22;5315259;33;34617;-84
2023/12/15 05:29:04;;;;;;;16.25;7.85;;;;;;;4.78;100.00;100972.50;5328009;33;35399;-84
2023/12/15 05:32:07;;;;;;;15.75;7.45;;;;;;;4.70;100.00;100982.09;5303353;33;33815;-84
2023/12/15 05:35:11;;;;;;;15.43;8.10;;;;;;;4.71;100.00;100989.13;5315275;33;34519;-84
2023/12/15 05:38:13;;;;;;;17.15;6.68;;;;;;;4.84;100.00;100983.63;5303430;33;33889;-84
2023/12/15 05:41:16;;;;;;;14.13;7.60;;;;;;;4.79;100.00;101000.00;5315213;33;33795;-84
2023/12/15 05:44:20;;;;;;;15.48;7.82;;;;;;;4.77;100.00;101002.81;5315912;33;33731;-84
2023/12/15 05:47:23;;;;;;;11.85;6.55;;;;;;;4.78;100.00;101009.84;5315577;33;33931;-84
2023/12/15 05:50:26;;;;;;;15.15;7.50;;;;;;;4.80;100.00;101011.53;5303382;33;34454;-84
2023/12/15 05:53:30;;;;;;;10.45;6.37;;;;;;;4.76;100.00;101017.09;5303613;33;34519;-84
2023/12/15 05:56:33;;;;;;;16.92;6.93;;;;;;;4.83;100.00;101019.31;5315218;33;32028;-84
2023/12/15 05:59:36;;;;;;;13.88;6.57;;;;;;;4.77;100.00;101017.97;5315088;33;33883;-84
2023/12/15 06:02:40;;;;;;;10.93;6.53;;;;;;;4.70;100.00;101027.44;5314875;33;34530;-84
2023/12/15 06:05:44;;;;;;;12.25;6.22;;;;;;;4.70;100.00;101036.28;5303545;33;34468;-84
2023/12/15 06:08:48;;;;;;;12.70;7.12;;;;;;;4.68;100.00;101043.56;5314963;33;33821;-84
2023/12/15 06:11:53;;;;;;;16.23;7.10;;;;;;;4.68;100.00;101045.38;5327799;33;34725;-84
2023/12/15 06:14:55;;;;;;;13.30;7.20;;;;;;;4.57;100.00;101051.59;5314652;33;33920;-84
2023/12/15 06:17:59;;;;;;;12.37;6.85;;;;;;;4.52;100.00;101067.09;5292837;33;33952;-84
2023/12/15 06:21:03;;;;;;;11.38;6.03;;;;;;;4.53;100.00;101068.78;5280072;33;33750;-84
2023/12/15 06:24:21;;;;;;;12.93;5.77;;;;;;;4.51;100.00;101070.75;5279173;33;35375;-84
2023/12/15 06:27:24;;;;;;;11.63;5.57;;;;;;;4.48;100.00;101069.16;5289800;33;33535;-84
2023/12/15 06:30:28;;;;;;;11.35;6.05;;;;;;;4.53;100.00;101075.00;5291378;33;33849;-84
2023/12/15 06:33:31;;;;;;;13.65;6.68;;;;;;;4.52;100.00;101083.94;5300337;33;33345;-84
2023/12/15 06:36:34;;;;;;;8.85;5.90;;;;;;;4.51;100.00;101087.59;5268722;33;33452;-84
2023/12/15 06:39:37;;;;;;;10.35;6.43;;;;;;;4.50;100.00;101095.69;5270796;33;34981;-84
2023/12/15 06:42:40;;;;;;;11.45;5.72;;;;;;;4.50;100.00;101095.69;5280575;33;33848;-83
2023/12/15 06:45:43;;;;;;;10.40;5.95;;;;;;;4.52;100.00;101104.44;5279489;33;33953;-83
2023/12/15 06:48:46;;;;;;;13.50;6.70;;;;;;;4.49;100.00;101110.84;5264647;33;34890;-84
2023/12/15 06:51:49;;;;;;;10.27;5.28;;;;;;;4.46;100.00;101112.91;5288481;33;33414;-88
2023/12/15 06:54:53;;;;;;;11.45;5.75;;;;;;;4.52;100.00;101121.25;5262148;33;34488;-88
2023/12/15 06:57:56;;;;;;;11.12;5.87;;;;;;;4.58;100.00;101133.28;5275610;33;34059;-88
2023/12/15 07:00:59;;;;;;;9.52;5.25;;;;;;;4.51;100.00;101138.25;5288715;33;33852;-88
2023/12/15 07:04:01;;;;;;;8.20;4.97;;;;;;;4.56;100.00;101145.87;5292764;33;34731;-84
2023/12/15 07:07:08;;;;;;;10.25;5.40;;;;;;;4.60;100.00;101158.00;5286505;33;33523;-84
2023/12/15 07:10:11;;;;;;;10.23;5.20;;;;;;;4.62;100.00;101172.09;5264374;33;33670;-84
2023/12/15 07:13:14;;;;;;;8.15;5.03;;;;;;;4.64;100.00;101178.12;5276588;33;33736;-83
2023/12/15 07:16:17;;;;;;;9.50;5.68;;;;;;;4.62;100.00;101182.75;5281261;33;33814;-83
2023/12/15 07:19:20;;;;;;;9.93;5.28;;;;;;;4.56;100.00;101191.19;5306511;33;33994;-84
2023/12/15 07:22:23;;;;;;;7.43;4.72;;;;;;;4.66;100.00;101188.69;5307777;33;34765;-83
2023/12/15 07:25:26;;;;;;;10.98;5.30;;;;;;;4.74;100.00;101194.28;5294526;33;33817;-83
2023/12/15 07:28:29;;;;;;;9.95;4.55;;;;;;;4.70;100.00;101204.31;5308023;33;34448;-83
2023/12/15 07:31:34;;;;;;;7.40;4.20;;;;;;;4.68;100.00;101211.59;5283202;33;34832;-83
2023/12/15 07:34:36;;;;;;;10.18;4.82;;;;;;;4.76;100.00;101227.00;5293668;33;34103;-83
2023/12/15 07:37:40;;;;;;;7.82;4.70;;;;;;;4.76;100.00;101225.19;5282317;33;33927;-83
2023/12/15 07:40:43;;;;;;;7.75;5.10;;;;;;;4.84;100.00;101232.59;5292792;33;33773;-83
2023/12/15 07:43:46;;;;;;;8.48;4.80;;;;;;;4.82;100.00;101244.34;5292945;33;33836;-83
2023/12/15 07:46:51;;;;;;;7.35;4.05;;;;;;;4.95;100.00;101247.78;5284933;33;33291;-83
2023/12/15 07:49:54;;;;;;;7.25;4.65;;;;;;;4.87;100.00;101258.19;5285619;33;33686;-83
2023/12/15 07:53:00;;;;;;;6.68;4.03;;;;;;;4.87;100.00;101247.50;5305129;33;33408;-83
2023/12/15 07:56:03;;;;;;;6.97;4.10;;;;;;;4.89;100.00;101264.25;5280897;33;33249;-83
2023/12/15 07:59:07;;;;;;;4.82;3.70;;;;;;;4.97;100.00;101267.16;5291175;33;34933;-83
2023/12/15 08:02:11;;;;;;;10.85;4.32;;;;;;;4.95;100.00;101283.31;5280895;33;34507;-83
2023/12/15 08:05:14;;;;;;;10.63;4.78;;;;;;;4.88;100.00;101292.72;5277441;33;33485;-83
2023/12/15 08:08:17;;;;;;;7.53;3.97;;;;;;;4.96;100.00;101292.16;5298463;33;33952;-83
2023/12/15 08:11:22;;;;;;;8.15;4.28;;;;;;;4.94;100.00;101297.63;5293404;33;34713;-83
2023/12/15 08:14:27;;;;;;;9.68;4.75;;;;;;;5.09;100.00;101313.38;5294943;33;33197;-83
2023/12/15 08:17:30;;;;;;;6.47;4.00;;;;;;;5.09;100.00;101322.28;5294851;33;34370;-83
2023/12/15 08:20:33;;;;;;;5.43;4.32;;;;;;;5.12;100.00;101324.69;5294717;33;33936;-83
2023/12/15 08:23:37;;;;;;;7.62;4.25;;;;;;;5.20;100.00;101327.59;5299938;33;34493;-83
2023/12/15 08:26:59;;;;;;;8.23;4.57;;;;;;;5.18;100.00;101334.91;5311278;33;34065;-83
2023/12/15 08:30:02;;;;;;;6.43;4.25;;;;;;;5.25;100.00;101342.44;5315756;33;34185;-83
2023/12/15 08:33:05;;;;;;;9.00;4.70;;;;;;;5.31;100.00;101344.63;5307119;33;34321;-83
2023/12/15 08:36:09;;;;;;;6.03;4.25;;;;;;;5.29;100.00;101350.06;5305983;33;34783;-83
2023/12/15 08:39:12;;;;;;;5.97;4.03;;;;;;;5.40;100.00;101350.06;5285068;33;33515;-83
2023/12/15 08:42:19;;;;;;;9.38;5.75;;;;;;;5.48;100.00;101362.00;5297956;33;33824;-83
2023/12/15 08:45:22;;;;;;;8.13;5.12;;;;;;;5.55;100.00;101371.22;5302520;33;33830;-83
2023/12/15 08:48:26;;;;;;;8.30;4.70;;;;;;;5.54;100.00;101375.72;5296422;33;34672;-88
2023/12/15 08:51:29;;;;;;;7.65;4.97;;;;;;;5.60;100.00;101379.72;5293454;33;34341;-87
2023/12/15 08:54:32;;;;;;;8.25;4.60;;;;;;;5.79;100.00;101382.66;5309886;33;34188;-87
2023/12/15 08:57:35;;;;;;;8.40;4.97;;;;;;;5.88;100.00;101386.41;5293369;33;33371;-83
2023/12/15 09:00:39;;;;;;;11.88;5.30;;;;;;;5.85;100.00;101390.16;5322340;33;33868;-83
2023/12/15 09:03:42;;;;;;;11.23;5.47;;;;;;;5.89;100.00;101394.28;5311487;33;35198;-83
2023/12/15 09:06:45;;;;;;;8.75;5.50;;;;;;;5.96;100.00;101394.66;5297181;33;34424;-82
2023/12/15 09:09:52;;;;;;;8.85;4.85;;;;;;;5.93;100.00;101400.25;5283593;33;33713;-85
2023/12/15 09:12:55;;;;;;;8.40;5.18;;;;;;;6.01;100.00;101405.84;5294924;33;33745;-82
2023/12/15 09:15:58;;;;;;;8.57;5.20;;;;;;;6.02;100.00;101412.87;5299626;33;33761;-82
2023/12/15 09:19:02;;;;;;;8.00;4.70;;;;;;;6.06;100.00;101425.03;5310811;33;33391;-83
2023/12/15 09:22:07;;;;;;;8.15;4.55;;;;;;;6.09;100.00;101422.12;5294695;33;34056;-83
2023/12/15 09:25:10;;;;;;;11.38;4.95;;;;;;;6.07;100.00;101418.72;5294989;33;34848;-83
2023/12/15 09:28:12;;;;;;;9.25;5.07;;;;;;;6.18;100.00;101420.53;5283266;33;33522;-83
2023/12/15 09:31:16;;;;;;;7.85;5.12;;;;;;;6.13;100.00;101431.59;5294217;33;33892;-83
2023/12/15 09:34:19;;;;;;;8.70;4.93;;;;;;;6.13;100.00;101436.94;5307880;33;33637;-83
2023/12/15 09:37:22;;;;;;;7.37;5.03;;;;;;;6.19;100.00;101443.63;5294794;33;33623;-83
2023/12/15 09:40:27;;;;;;;8.25;4.95;;;;;;;6.33;100.00;101448.72;5295506;33;33527;-83
2023/12/15 09:43:31;;;;;;;8.25;5.60;;;;;;;6.39;100.00;101455.38;5300523;33;33736;-83
2023/12/15 09:46:35;;;;;;;7.62;4.53;;;;;;;6.33;100.00;101464.75;5299912;33;33947;-83
2023/12/15 09:49:40;;;;;;;12.27;5.75;;;;;;;6.30;100.00;101464.16;5308300;33;34491;-83
2023/12/15 09:52:45;;;;;;;8.52;5.10;;;;;;;6.44;100.00;101465.72;5308387;33;33791;-83
2023/12/15 09:55:51;;;;;;;11.77;5.85;;;;;;;6.49;100.00;101463.50;5295350;33;34470;-83
2023/12/15 09:58:54;;;;;;;9.43;5.03;;;;;;;6.32;100.00;101472.91;5312757;33;33952;-83
2023/12/15 10:01:57;;;;;;;9.82;5.37;;;;;;;6.28;100.00;101477.63;5294513;33;33887;-83
2023/12/15 10:05:00;;;;;;;10.82;5.97;;;;;;;6.41;100.00;101484.69;5283119;33;33548;-83
2023/12/15 10:08:03;;;;;;;16.90;5.90;;;;;;;6.33;100.00;101493.34;5283222;33;34690;-83
2023/12/15 10:11:07;;;;;;;10.75;5.82;;;;;;;6.33;100.00;101493.34;5311235;33;34204;-83
2023/12/15 10:14:11;;;;;;;10.65;5.30;;;;;;;6.28;100.00;101493.69;5299835;33;33482;-83
2023/12/15 10:17:14;;;;;;;12.23;5.95;;;;;;;6.31;100.00;101493.44;5295978;33;33698;-83
2023/12/15 10:20:17;;;;;;;7.65;5.15;;;;;;;6.21;100.00;101503.19;5308569;33;33786;-83
2023/12/15 10:23:28;;;;;;;8.68;5.28;;;;;;;6.29;100.00;101497.25;5307913;33;33554;-83
2023/12/15 10:26:31;;;;;;;7.37;4.53;;;;;;;6.29;100.00;101498.09;5307216;33;33450;-83
2023/12/15 10:29:38;;;;;;;9.90;5.00;;;;;;;6.35;100.00;101516.31;5296920;33;33802;-83
2023/12/15 10:32:41;;;;;;;10.88;5.28;;;;;;;6.15;100.00;101518.88;5301725;33;33982;-83
2023/12/15 10:35:49;;;;;;;7.85;4.97;;;;;;;6.04;100.00;101525.91;5295948;33;33758;-83
2023/12/15 10:38:53;;;;;;;8.95;5.30;;;;;;;6.08;100.00;101530.06;5296147;33;33716;-83
2023/12/15 10:41:58;;;;;;;10.82;6.30;;;;;;;6.31;100.00;101520.19;5303447;33;33274;-84
2023/12/15 10:45:07;;;;;;;9.95;5.72;;;;;;;6.34;100.00;101527.97;5318759;33;34482;-87
2023/12/15 10:48:12;;;;;;;11.93;5.65;;;;;;;6.25;100.00;101530.53;5308500;33;33730;-84
2023/12/15 10:51:15;;;;;;;7.43;4.50;;;;;;;6.14;100.00;101531.34;5317391;33;34405;-84
2023/12/15 10:54:18;;;;;;;8.82;5.45;;;;;;;6.19;100.00;101537.22;5288639;33;33519;-83
2023/12/15 10:57:22;;;;;;;10.88;4.87;;;;;;;6.30;100.00;101545.22;5299444;33;34309;-83
2023/12/15 11:00:25;;;;;;;8.35;5.07;;;;;;;6.35;100.00;101543.06;5305452;33;33728;-83
2023/12/15 11:03:29;;;;;;;8.65;5.57;;;;;;;6.40;100.00;101533.81;5310839;33;33759;-83
2023/12/15 11:06:32;;;;;;;9.57;5.18;;;;;;;6.36;100.00;101554.59;5298769;33;34336;-83
2023/12/15 11:09:36;;;;;;;7.70;4.97;;;;;;;6.39;100.00;101550.84;5295979;33;33788;-83
2023/12/15 11:12:52;;;;;;;10.18;5.00;;;;;;;6.44;100.00;101554.84;5302829;33;33416;-84
2023/12/15 11:15:55;;;;;;;6.70;5.00;;;;;;;6.50;100.00;101557.03;5311685;33;33646;-83
2023/12/15 11:18:59;;;;;;;8.85;6.15;;;;;;;6.56;100.00;101561.03;5300824;33;34017;-84
2023/12/15 11:22:08;;;;;;;11.00;5.60;;;;;;;6.64;100.00;101555.06;5295471;33;34275;-84
2023/12/15 11:25:18;;;;;;;9.88;5.35;;;;;;;6.63;100.00;101556.03;5288224;33;33760;-83
2023/12/15 11:28:21;;;;;;;11.03;6.40;;;;;;;6.56;100.00;101558.38;5280622;33;33843;-83
2023/12/15 11:31:24;;;;;;;10.70;6.28;;;;;;;6.56;100.00;101561.03;5315988;33;34051;-83
2023/12/15 11:34:39;;;;;;;11.10;6.50;;;;;;;6.57;100.00;101558.22;5291959;33;33288;-83
2023/12/15 11:37:42;;;;;;;13.32;6.32;;;;;;;6.53;100.00;101563.97;5289564;33;34158;-83
2023/12/15 11:40:45;;;;;;;11.25;5.72;;;;;;;6.58;100.00;101569.78;5279360;33;34468;-83
2023/12/15 11:43:52;;;;;;;9.95;5.50;;;;;;;6.43;100.00;101574.53;5290869;33;34417;-83
2023/12/15 11:46:55;;;;;;;12.40;6.22;;;;;;;6.42;100.00;101572.00;5281616;33;34561;-83
2023/12/15 11:49:59;;;;;;;10.13;5.82;;;;;;;6.53;100.00;101574.66;5278168;33;33770;-83
2023/12/15 11:53:06;;;;;;;9.95;5.60;;;;;;;6.61;100.00;101590.09;5289765;33;34569;-83
2023/12/15 11:56:10;;;;;;;11.93;5.87;;;;;;;6.65;100.00;101586.22;5290305;33;34301;-83
2023/12/15 11:59:13;;;;;;;11.95;6.07;;;;;;;6.70;100.00;101586.69;5289704;33;33430;-84
2023/12/15 12:02:16;;;;;;;13.50;6.35;;;;;;;6.81;100.00;101581.31;5290942;33;33894;-84
2023/12/15 12:05:20;;;;;;;16.20;6.80;;;;;;;6.91;100.00;101576.09;5277869;33;33960;-84
2023/12/15 12:08:23;;;;;;;10.07;5.87;;;;;;;6.92;100.00;101586.66;5295803;33;33383;-84
2023/12/15 12:11:27;;;;;;;8.90;5.62;;;;;;;6.87;100.00;101588.84;5301388;33;34050;-84
2023/12/15 12:14:29;;;;;;;12.02;6.15;;;;;;;6.96;100.00;101585.44;5304348;33;33790;-84
2023/12/15 12:17:34;;;;;;;11.80;5.47;;;;;;;7.04;100.00;101592.84;5297214;33;33663;-84
2023/12/15 12:20:41;;;;;;;9.55;5.28;;;;;;;7.17;100.00;101590.03;5315333;33;34705;-88
2023/12/15 12:23:44;;;;;;;9.45;5.65;;;;;;;7.35;100.00;101590.34;5293754;33;33933;-88
2023/12/15 12:26:51;;;;;;;9.77;6.15;;;;;;;7.39;100.00;101599.81;5287318;33;33740;-85
2023/12/15 12:29:55;;;;;;;12.10;6.53;;;;;;;7.29;100.00;101602.41;5280370;33;34843;-85
2023/12/15 12:33:00;;;;;;;9.50;5.07;;;;;;;7.26;100.00;101599.97;5260934;33;33717;-89
2023/12/15 12:36:06;;;;;;;10.40;5.43;;;;;;;7.30;100.00;101613.97;5267551;33;33842;-86
2023/12/15 12:39:09;;;;;;;11.00;5.53;;;;;;;7.18;100.00;101611.31;5287100;33;34117;-86
2023/12/15 12:42:12;;;;;;;12.50;5.85;;;;;;;7.05;100.00;101624.00;5282298;33;34453;-87
2023/12/15 12:45:18;;;;;;;11.90;5.85;;;;;;;6.99;100.00;101627.16;5281769;33;33726;-87
2023/12/15 12:48:21;;;;;;;12.15;6.07;;;;;;;7.02;100.00;101633.16;5285090;33;33853;-87
2023/12/15 12:51:25;;;;;;;10.48;5.30;;;;;;;7.06;100.00;101636.41;5286260;33;35039;-87
2023/12/15 12:54:28;;;;;;;9.45;5.05;;;;;;;6.98;100.00;101637.03;5267453;33;34748;-87
2023/12/15 12:57:31;;;;;;;10.40;5.40;;;;;;;6.93;100.00;101639.25;5289990;33;34235;-88
2023/12/15 13:00:34;;;;;;;11.32;4.78;;;;;;;6.98;100.00;101638.84;5278564;33;34206;-87
2023/12/15 13:03:38;;;;;;;11.48;5.55;;;;;;;7.12;100.00;101645.78;5276417;33;33691;-86
2023/12/15 13:06:44;;;;;;;12.32;5.45;;;;;;;6.99;100.00;101649.47;5277888;33;33720;-85
2023/12/15 13:09:47;;;;;;;13.80;5.62;;;;;;;7.10;100.00;101661.97;5275981;33;34490;-86
2023/12/15 13:12:54;;;;;;;11.73;5.40;;;;;;;6.90;100.00;101660.03;5276736;33;33781;-86
2023/12/15 13:15:59;;;;;;;12.93;6.12;;;;;;;6.95;100.00;101669.41;5280920;33;33717;-86
2023/12/15 13:19:02;;;;;;;11.02;5.03;;;;;;;7.04;100.00;101674.00;5290228;33;35134;-86
2023/12/15 13:22:06;;;;;;;8.90;4.70;;;;;;;6.78;100.00;101681.44;5304107;33;33508;-87
2023/12/15 13:25:13;;;;;;;13.18;5.40;;;;;;;6.75;100.00;101691.53;5291617;33;34511;-87
2023/12/15 13:28:18;;;;;;;10.10;5.72;;;;;;;6.64;100.00;101687.06;5293144;33;33528;-86
2023/12/15 13:31:21;;;;;;;12.85;5.50;;;;;;;6.68;100.00;101688.50;5290877;33;33957;-86
2023/12/15 13:34:25;;;;;;;10.05;5.12;;;;;;;6.62;100.00;101690.81;5303900;33;33532;-86
2023/12/15 13:37:30;;;;;;;9.63;5.62;;;;;;;6.67;100.00;101694.84;5316358;33;34497;-86
2023/12/15 13:40:33;;;;;;;8.35;5.25;;;;;;;6.62;100.00;101701.53;5292681;33;33811;-86
2023/12/15 13:43:37;;;;;;;12.10;5.28;;;;;;;6.67;100.00;101710.03;5281733;33;34056;-86
2023/12/15 13:46:40;;;;;;;13.85;4.55;;;;;;;6.53;100.00;101717.31;5296221;33;33778;-86
2023/12/15 13:49:43;;;;;;;11.23;5.12;;;;;;;6.37;100.00;101719.44;5296683;33;33877;-86
2023/12/15 13:52:46;;;;;;;12.45;5.65;;;;;;;6.26;100.00;101731.00;5295869;33;34560;-86
2023/12/15 13:55:49;;;;;;;10.68;5.37;;;;;;;6.34;100.00;101735.75;5294677;33;33768;-86
2023/12/15 13:58:52;;;;;;;9.95;5.10;;;;;;;6.13;100.00;101743.56;5305658;33;35191;-85
2023/12/15 14:01:55;;;;;;;8.38;4.45;;;;;;;6.03;100.00;101748.75;5304357;33;34250;-86
2023/12/15 14:04:59;;;;;;;10.95;4.80;;;;;;;5.93;100.00;101749.53;5296514;33;33788;-86
2023/12/15 14:08:04;;;;;;;11.25;4.82;;;;;;;6.00;100.00;101757.00;5317170;33;34671;-86
2023/12/15 14:11:19;;;;;;;16.20;5.87;;;;;;;5.83;100.00;101765.37;5284634;33;34754;-91
2023/12/15 14:14:22;;;;;;;12.10;5.68;;;;;;;5.78;100.00;101768.38;5284373;33;35231;-90
2023/12/15 14:17:28;;;;;;;7.30;4.47;;;;;;;5.79;100.00;101777.25;5284161;33;33831;-87
2023/12/15 14:20:32;;;;;;;9.63;5.10;;;;;;;5.76;100.00;101772.13;5295406;33;33976;-87
2023/12/15 14:23:35;;;;;;;8.48;4.50;;;;;;;5.60;100.00;101767.06;5283721;33;34431;-86
2023/12/15 14:26:39;;;;;;;10.07;4.90;;;;;;;5.59;100.00;101776.91;5292239;33;33950;-86
2023/12/15 14:29:43;;;;;;;11.90;4.75;;;;;;;5.47;100.00;101785.81;5278590;33;34431;-87
2023/12/15 14:32:48;;;;;;;8.38;4.47;;;;;;;5.34;100.00;101791.16;5290055;33;33679;-86
2023/12/15 14:35:52;;;;;;;9.50;4.65;;;;;;;5.31;100.00;101796.72;5293363;33;33974;-86
2023/12/15 14:38:55;;;;;;;8.07;4.28;;;;;;;5.19;100.00;101794.91;5290689;33;33576;-85
2023/12/15 14:41:58;;;;;;;9.85;4.35;;;;;;;5.09;100.00;101800.06;5291401;33;33716;-86
2023/12/15 14:45:01;;;;;;;12.15;4.85;;;;;;;5.12;100.00;101810.53;5281915;33;33740;-86
2023/12/15 14:48:06;;;;;;;6.93;4.05;;;;;;;4.91;100.00;101822.66;5296364;33;33401;-86
2023/12/15 14:51:23;;;;;;;7.55;3.62;;;;;;;4.82;100.00;101832.16;5307216;33;33820;-86
2023/12/15 14:54:26;;;;;;;6.45;3.72;;;;;;;4.77;100.00;101835.16;5274751;33;33852;-85
2023/12/15 14:57:29;;;;;;;7.47;4.05;;;;;;;4.71;100.00;101834.69;5294085;33;32445;-86
2023/12/15 15:00:32;;;;;;;6.55;3.75;;;;;;;4.66;100.00;101842.19;5279612;33;33262;-85
2023/12/15 15:03:36;;;;;;;6.62;3.97;;;;;;;4.55;100.00;101851.75;5307541;33;33697;-85
2023/12/15 15:06:40;;;;;;;10.00;4.03;;;;;;;4.53;100.00;101851.00;5288971;33;34482;-86
2023/12/15 15:09:48;;;;;;;8.68;4.40;;;;;;;4.42;100.00;101861.53;5281023;33;34469;-85
2023/12/15 15:12:51;;;;;;;7.37;4.40;;;;;;;4.31;100.00;101861.38;5288588;33;33193;-86
2023/12/15 15:15:54;;;;;;;5.22;3.60;;;;;;;4.17;100.00;101872.09;5284629;33;33676;-85
2023/12/15 15:18:57;;;;;;;11.88;3.55;;;;;;;4.16;100.00;101868.56;5285032;33;33168;-85
2023/12/15 15:22:00;;;;;;;7.60;3.90;;;;;;;4.04;100.00;101880.87;5290509;33;32953;-85
2023/12/15 15:25:04;;;;;;;9.35;4.12;;;;;;;3.86;100.00;101885.56;5292108;33;33524;-86
2023/12/15 15:28:08;;;;;;;8.32;4.50;;;;;;;3.84;100.00;101886.63;5289108;33;33750;-86
2023/12/15 15:31:14;;;;;;;10.43;4.15;;;;;;;3.71;100.00;101891.84;5288420;33;153526;-85
2023/12/15 15:34:18;;;;;;;11.00;4.07;;;;;;;3.60;100.00;101886.34;5279314;33;32159;-85
2023/12/15 15:37:21;;;;;;;8.68;3.70;;;;;;;3.47;100.00;101890.72;5272636;33;33803;-86
2023/12/15 15:40:24;;;;;;;8.50;3.83;;;;;;;3.51;100.00;101898.44;5275079;33;34456;-85
2023/12/15 15:43:45;;;;;;;7.10;3.70;;;;;;;3.30;100.00;101910.38;5286796;33;33810;-86
2023/12/15 15:46:52;;;;;;;8.38;3.65;;;;;;;3.31;100.00;101897.00;5294236;33;33798;-89
2023/12/15 15:49:55;;;;;;;5.40;3.53;;;;;;;3.40;100.00;101903.56;5290170;33;34911;-90
2023/12/15 15:52:57;;;;;;;5.55;3.30;;;;;;;3.55;100.00;101909.75;5296039;33;33284;-87
2023/12/15 15:56:00;;;;;;;4.32;3.20;;;;;;;3.40;100.00;101919.53;5293326;33;33269;-86
2023/12/15 15:59:05;;;;;;;8.40;4.00;;;;;;;3.32;100.00;101927.97;5302395;33;33721;-86
2023/12/15 16:02:09;;;;;;;10.20;4.15;;;;;;;3.32;100.00;101935.09;5293061;33;34902;-86
2023/12/15 16:05:12;;;;;;;5.82;3.72;;;;;;;3.14;100.00;101937.06;5290821;33;34382;-87
2023/12/15 16:08:15;;;;;;;6.80;3.58;;;;;;;3.04;100.00;101949.19;5284455;33;34790;-87
2023/12/15 16:11:18;;;;;;;7.60;4.05;;;;;;;2.92;100.00;101958.75;5287967;33;33293;-87
2023/12/15 16:14:21;;;;;;;4.22;3.45;;;;;;;2.91;100.00;101957.03;5287790;33;33681;-86
2023/12/15 16:17:24;;;;;;;8.93;4.07;;;;;;;2.90;100.00;101963.31;5289905;33;34306;-87
2023/12/15 16:20:27;;;;;;;3.90;3.03;;;;;;;2.76;100.00;101965.91;5295026;33;34438;-86
2023/12/15 16:23:31;;;;;;;7.87;4.05;;;;;;;2.67;100.00;101967.31;5312709;33;33456;-86
2023/12/15 16:26:34;;;;;;;7.22;3.72;;;;;;;2.58;100.00;101978.47;5302374;33;33923;-86
2023/12/15 16:29:37;;;;;;;9.02;4.18;;;;;;;2.56;100.00;101991.84;5320108;33;33284;-86
2023/12/15 16:32:40;;;;;;;8.90;4.50;;;;;;;2.50;100.00;101998.34;5311231;33;35265;-86
2023/12/15 16:35:44;;;;;;;7.95;4.45;;;;;;;2.38;100.00;101999.03;5287994;33;33733;-86
2023/12/15 16:38:47;;;;;;;6.65;4.20;;;;;;;2.36;100.00;102008.88;5297783;33;33979;-86
2023/12/15 16:41:50;;;;;;;6.87;4.20;;;;;;;2.34;100.00;102013.44;5296081;33;33685;-86
2023/12/15 16:44:56;;;;;;;12.05;5.20;;;;;;;2.24;100.00;102015.72;5305579;33;33671;-86
2023/12/15 16:47:59;;;;;;;8.93;5.07;;;;;;;2.27;100.00;102020.03;5293611;33;33236;-86
2023/12/15 16:51:03;;;;;;;7.07;4.53;;;;;;;2.14;100.00;102025.16;5312036;33;33344;-86
2023/12/15 16:54:07;;;;;;;8.15;4.68;;;;;;;2.01;100.00;102026.75;5303040;33;34730;-86
2023/12/15 16:57:11;;;;;;;9.07;4.95;;;;;;;1.90;100.00;102037.97;5297143;33;33561;-86
2023/12/15 17:00:15;;;;;;;8.77;4.25;;;;;;;1.96;100.00;102040.28;5295880;33;33908;-86
2023/12/15 17:03:19;;;;;;;13.50;4.93;;;;;;;1.81;100.00;102041.97;5305725;33;33658;-86
2023/12/15 17:06:22;;;;;;;6.47;3.95;;;;;;;1.74;100.00;102042.34;5283514;33;33764;-86
2023/12/15 17:09:25;;;;;;;9.45;5.60;;;;;;;1.72;100.00;102053.03;5293827;33;33879;-86
2023/12/15 17:12:28;;;;;;;6.05;3.95;;;;;;;1.61;100.00;102052.75;5301096;33;32470;-85
2023/12/15 17:15:32;;;;;;;5.97;4.12;;;;;;;1.64;100.00;102054.38;5299913;33;33378;-86
2023/12/15 17:18:36;;;;;;;8.65;4.20;;;;;;;1.52;100.00;102067.34;5294955;33;34160;-85
2023/12/15 17:21:39;;;;;;;13.30;3.80;;;;;;;1.40;100.00;102070.59;5287252;33;33626;-86
2023/12/15 17:24:46;;;;;;;6.70;3.50;;;;;;;1.34;100.00;102084.19;5290031;33;33588;-86
2023/12/15 17:27:49;;;;;;;7.45;4.40;;;;;;;1.33;100.00;102087.78;5290550;33;33632;-86
2023/12/15 17:30:53;;;;;;;9.52;4.47;;;;;;;1.26;100.00;102089.03;5288365;33;33840;-86
2023/12/15 17:33:56;;;;;;;9.00;3.90;;;;;;;1.18;100.00;102094.69;5289240;33;33734;-86
2023/12/15 17:36:59;;;;;;;8.50;4.50;;;;;;;1.15;100.00;102105.47;5294111;33;35183;-86
2023/12/15 17:40:02;;;;;;;8.90;4.43;;;;;;;1.00;100.00;102112.38;5291344;33;34489;-86
2023/12/15 17:43:06;;;;;;;7.85;3.72;;;;;;;0.89;100.00;102123.47;5291264;33;33847;-86
2023/12/15 17:46:09;;;;;;;8.07;3.85;;;;;;;0.95;100.00;102124.97;5290368;33;33899;-86
2023/12/15 17:49:12;;;;;;;3.72;2.87;;;;;;;1.13;100.00;102136.50;5277781;33;33534;-86
2023/12/15 17:52:16;;;;;;;5.22;2.87;;;;;;;1.20;100.00;102139.69;5291728;33;34430;-86
2023/12/15 17:55:19;;;;;;;5.95;3.15;;;;;;;1.22;100.00;102146.66;5288600;33;35008;-85
2023/12/15 17:58:23;;;;;;;8.88;3.22;;;;;;;1.28;100.00;102148.16;5303750;33;33793;-88
2023/12/15 18:01:26;;;;;;;7.78;3.00;;;;;;;1.22;100.00;102153.75;5282244;33;33778;-92
2023/12/15 18:04:29;;;;;;;19.12;4.78;;;;;;;1.18;100.00;102158.38;5287719;33;33832;-92
2023/12/15 18:07:50;;;;;;;5.50;3.35;;;;;;;1.22;100.00;102164.38;5294716;28;35293;31
2023/12/15 18:10:54;;;;;;;6.55;3.83;;;;;;;1.18;100.00;102163.66;5307950;33;33510;-88
2023/12/15 18:13:57;;;;;;;5.20;3.37;;;;;;;1.25;100.00;102158.91;5322506;33;33320;-89
2023/12/15 18:17:00;;;;;;;7.30;4.05;;;;;;;1.08;100.00;102160.59;5277544;33;33567;-89
2023/12/15 18:20:04;;;;;;;5.53;3.70;;;;;;;0.99;100.00;102173.41;5279431;33;33701;-88
2023/12/15 18:23:08;;;;;;;5.00;3.53;;;;;;;1.15;100.00;102181.53;5305547;33;33812;-85
2023/12/15 18:26:16;;;;;;;7.97;3.70;;;;;;;1.02;100.00;102191.84;5286927;33;32178;-85
2023/12/15 18:29:19;;;;;;;5.72;3.70;;;;;;;0.96;100.00;102187.69;5299510;33;33981;-84
2023/12/15 18:32:22;;;;;;;5.30;3.25;;;;;;;0.99;100.00;102190.19;5314227;33;34854;-84
2023/12/15 18:35:27;;;;;;;9.25;4.35;;;;;;;0.88;100.00;102192.50;5310343;33;34258;-85
2023/12/15 18:38:30;;;;;;;8.27;3.78;;;;;;;0.74;100.00;102190.47;5294217;33;33835;-85
2023/12/15 18:41:34;;;;;;;6.97;3.97;;;;;;;0.64;100.00;102194.44;5308220;33;33885;-84
2023/12/15 18:44:38;;;;;;;4.95;3.50;;;;;;;0.57;100.00;102203.63;5302667;33;34487;-84
2023/12/15 18:47:41;;;;;;;4.70;3.70;;;;;;;0.50;100.00;102212.75;5315281;33;33971;-84
2023/12/15 18:50:44;;;;;;;6.75;3.92;;;;;;;0.45;100.00;102205.88;5307277;33;33858;-84
2023/12/15 18:53:48;;;;;;;9.13;4.22;;;;;;;0.37;100.00;102212.44;5307676;33;33489;-84
2023/12/15 18:56:52;;;;;;;6.75;4.28;;;;;;;0.27;100.00;102219.94;5300142;33;33905;-84
2023/12/15 18:59:56;;;;;;;10.43;4.43;;;;;;;0.21;100.00;102221.06;5315949;33;34469;-84
2023/12/15 19:02:59;;;;;;;11.80;4.10;;;;;;;0.19;100.00;102224.69;5309742;33;34624;-84
2023/12/15 19:06:02;;;;;;;7.87;4.10;;;;;;;0.16;100.00;102228.34;5299998;33;33290;-84
2023/12/15 19:09:08;;;;;;;10.18;4.28;;;;;;;0.14;100.00;102224.88;5301737;33;33765;-84
2023/12/15 19:12:10;;;;;;;9.00;4.93;;;;;;;0.12;100.00;102225.91;5290849;33;33820;-84
2023/12/15 19:15:14;;;;;;;8.13;4.97;;;;;;;0.08;100.00;102233.09;5299569;33;33802;-85
2023/12/15 19:18:19;;;;;;;11.02;4.78;;;;;;;0.03;100.00;102229.78;5290532;33;34436;-85
2023/12/15 19:21:22;;;;;;;9.45;4.57;;;;;;;-0.02;100.00;102237.91;5290819;33;34155;-84
2023/12/15 19:24:25;;;;;;;7.03;4.00;;;;;;;-0.08;100.00;102232.88;5316698;33;35284;-85